Pagrindinis puslapis
METAR-TAF:

METAR-TAF

Oro uostai :

Bursa, Turkija

platuma: 40-15-19N, ilguma: 029-33-45E, Aukštis: 233 m

Dabartinis oras

Ataskaita buvo paskelbta 32 minutes, ne 04:20 UTC
Vėjas 3 kt iš Pietų, svyruoja nuo Pietų/Pietryčių ir Šiaurės Vakarų
Temperatūra -1°C
Drėgmė 100%
Slėgis 1014 hPa
Matomumas: 3200 m
rūkana

METAR: LTBR 100420Z 19003KT 150V320 3200 BR NSC M01/M01 Q1014 NOSIG RMK RWY07 21004KT

Laikas: 07:52 (04:52 UTC)

Prognozė

Ataskaita buvo paskelbta 1 valandą ir 31 minutes, ne 03:21 UTC
Prognozė galioja nuo 10 metu 03 UTC su 10 metu 24 UTC
Vėjas 2 kt nuo kintamojo kryptimis
Matomumas: 3500 m
rūkana
Tapsmas
nuo 10 metu 05 UTC su 10 metu 08 UTC
Matomumas 10 km arba daugiau
nėra debesų žemiau 1500 m ir nėra kamuolinių lietaus debesų
Tikimybė 40%
nuo 10 metu 08 UTC su 10 metu 12 UTC
Vėjas 12 kt iš Rytų

TAF: LTBR 100321Z 1003/1024 VRB02KT 3500 BR NSC BECMG 1005/1008 CAVOK PROB40 1008/1012 08012KT

Orai ataskaitas ir orų prognozės (METAR, TAF).

turimą stotys yra geltonos ir raudonos taškus žemėlapyje.

Perkelti pele per norėdami pamatyti stoties vardą.

Tada spustelėkite, norėdami matyti oro stebėjimo ir prognozės.

Norėdami pakeisti žemėlapį: spustelėkite ant žalios mygtukų su juodo kryžiaus žemyn,; žalią mygtuką su brūkšneliu, jei norite nutolinti; arba žalių rodyklių gretimoms žemėlapius.


METAR-TAF: